sensor_id;sensor_type;location;lat;lon;timestamp;temperature;humidity
27368;DHT22;14839;48.106;11.618;2024-01-15T05:01:33;-0.90;94.60
27368;DHT22;14839;48.106;11.618;2024-01-15T05:03:59;-0.80;94.60
27368;DHT22;14839;48.106;11.618;2024-01-15T05:06:25;-0.80;94.60
27368;DHT22;14839;48.106;11.618;2024-01-15T05:08:50;-0.80;94.60
27368;DHT22;14839;48.106;11.618;2024-01-15T05:11:16;-0.80;94.60
27368;DHT22;14839;48.106;11.618;2024-01-15T05:13:41;-0.80;94.60
27368;DHT22;14839;48.106;11.618;2024-01-15T05:16:07;-0.80;94.60
27368;DHT22;14839;48.106;11.618;2024-01-15T05:18:33;-0.80;94.60
27368;DHT22;14839;48.106;11.618;2024-01-15T05:20:58;-0.80;94.60
27368;DHT22;14839;48.106;11.618;2024-01-15T05:23:24;-0.90;94.60
27368;DHT22;14839;48.106;11.618;2024-01-15T05:25:49;-0.90;94.60
27368;DHT22;14839;48.106;11.618;2024-01-15T05:28:15;-0.90;94.60
27368;DHT22;14839;48.106;11.618;2024-01-15T05:30:41;-0.90;94.60
27368;DHT22;14839;48.106;11.618;2024-01-15T05:33:06;-0.90;94.60
27368;DHT22;14839;48.106;11.618;2024-01-15T05:35:33;-0.90;94.60
27368;DHT22;14839;48.106;11.618;2024-01-15T05:37:59;-0.90;94.60
27368;DHT22;14839;48.106;11.618;2024-01-15T05:40:24;-0.90;94.60
27368;DHT22;14839;48.106;11.618;2024-01-15T05:42:50;-0.90;94.60
27368;DHT22;14839;48.106;11.618;2024-01-15T05:45:15;-0.90;94.60
27368;DHT22;14839;48.106;11.618;2024-01-15T05:47:41;-0.90;94.60
27368;DHT22;14839;48.106;11.618;2024-01-15T05:50:07;-0.90;94.60
27368;DHT22;14839;48.106;11.618;2024-01-15T05:52:32;-0.90;94.60
27368;DHT22;14839;48.106;11.618;2024-01-15T05:54:58;-0.90;94.60
27368;DHT22;14839;48.106;11.618;2024-01-15T05:57:23;-0.80;94.60
27368;DHT22;14839;48.106;11.618;2024-01-15T05:59:49;-0.80;94.60
27368;DHT22;14839;48.106;11.618;2024-01-15T06:02:15;-0.80;94.60
27368;DHT22;14839;48.106;11.618;2024-01-15T06:04:40;-0.80;94.60
27368;DHT22;14839;48.106;11.618;2024-01-15T06:07:06;-0.80;94.60
27368;DHT22;14839;48.106;11.618;2024-01-15T06:09:32;-0.80;94.60
27368;DHT22;14839;48.106;11.618;2024-01-15T06:11:57;-0.80;94.60
27368;DHT22;14839;48.106;11.618;2024-01-15T06:14:23;-0.90;94.60
27368;DHT22;14839;48.106;11.618;2024-01-15T06:16:48;-0.80;94.60
27368;DHT22;14839;48.106;11.618;2024-01-15T06:19:14;-0.90;94.60
27368;DHT22;14839;48.106;11.618;2024-01-15T06:21:40;-0.80;94.60
27368;DHT22;14839;48.106;11.618;2024-01-15T06:24:05;-0.90;94.60
27368;DHT22;14839;48.106;11.618;2024-01-15T06:26:31;-0.90;94.60
27368;DHT22;14839;48.106;11.618;2024-01-15T06:28:57;-0.90;94.60
27368;DHT22;14839;48.106;11.618;2024-01-15T06:31:22;-0.90;94.60
27368;DHT22;14839;48.106;11.618;2024-01-15T06:33:48;-0.90;94.60
27368;DHT22;14839;48.106;11.618;2024-01-15T06:36:14;-0.80;94.60
27368;DHT22;14839;48.106;11.618;2024-01-15T06:38:42;-0.80;94.60
27368;DHT22;14839;48.106;11.618;2024-01-15T06:41:08;-0.80;94.60
27368;DHT22;14839;48.106;11.618;2024-01-15T06:43:33;-0.80;94.60
27368;DHT22;14839;48.106;11.618;2024-01-15T06:45:59;-0.90;94.60
27368;DHT22;14839;48.106;11.618;2024-01-15T06:48:25;-0.80;94.60
27368;DHT22;14839;48.106;11.618;2024-01-15T06:50:50;-0.90;94.60
27368;DHT22;14839;48.106;11.618;2024-01-15T06:53:16;-0.80;94.60
27368;DHT22;14839;48.106;11.618;2024-01-15T06:55:42;-0.80;94.60
27368;DHT22;14839;48.106;11.618;2024-01-15T06:58:07;-0.80;94.60
27368;DHT22;14839;48.106;11.618;2024-01-15T07:00:33;-0.70;94.60
27368;DHT22;14839;48.106;11.618;2024-01-15T07:02:58;-0.70;94.60
27368;DHT22;14839;48.106;11.618;2024-01-15T07:05:24;-0.70;94.60
27368;DHT22;14839;48.106;11.618;2024-01-15T07:07:50;-0.60;94.60
27368;DHT22;14839;48.106;11.618;2024-01-15T07:10:15;-0.60;94.60
27368;DHT22;14839;48.106;11.618;2024-01-15T07:12:44;-0.60;94.60
27368;DHT22;14839;48.106;11.618;2024-01-15T07:15:10;-0.60;94.60
27368;DHT22;14839;48.106;11.618;2024-01-15T07:17:36;-0.60;94.60
27368;DHT22;14839;48.106;11.618;2024-01-15T07:20:08;-0.60;94.60
27368;DHT22;14839;48.106;11.618;2024-01-15T07:22:37;-0.50;94.60
27368;DHT22;14839;48.106;11.618;2024-01-15T07:25:03;-0.60;94.60
27368;DHT22;14839;48.106;11.618;2024-01-15T07:27:30;-0.60;94.60
27368;DHT22;14839;48.106;11.618;2024-01-15T07:29:56;-0.60;94.60
27368;DHT22;14839;48.106;11.618;2024-01-15T07:32:22;-0.50;94.60
27368;DHT22;14839;48.106;11.618;2024-01-15T07:34:47;-0.50;94.60
27368;DHT22;14839;48.106;11.618;2024-01-15T07:37:13;-0.60;94.60
27368;DHT22;14839;48.106;11.618;2024-01-15T07:39:39;-0.60;94.60
27368;DHT22;14839;48.106;11.618;2024-01-15T07:42:04;-0.60;94.60
27368;DHT22;14839;48.106;11.618;2024-01-15T07:44:30;-0.60;94.60
27368;DHT22;14839;48.106;11.618;2024-01-15T07:46:56;-0.60;94.60
27368;DHT22;14839;48.106;11.618;2024-01-15T07:49:21;-0.50;94.60
27368;DHT22;14839;48.106;11.618;2024-01-15T07:51:49;-0.40;94.60
27368;DHT22;14839;48.106;11.618;2024-01-15T07:54:14;-0.50;94.60
27368;DHT22;14839;48.106;11.618;2024-01-15T07:57:00;-0.50;94.60
27368;DHT22;14839;48.106;11.618;2024-01-15T07:59:29;-0.40;94.60
27368;DHT22;14839;48.106;11.618;2024-01-15T08:01:54;-0.40;94.60
27368;DHT22;14839;48.106;11.618;2024-01-15T08:04:20;-0.30;94.60
27368;DHT22;14839;48.106;11.618;2024-01-15T08:06:47;-0.30;94.60
27368;DHT22;14839;48.106;11.618;2024-01-15T08:09:13;-0.40;94.60
27368;DHT22;14839;48.106;11.618;2024-01-15T08:11:42;-0.30;94.60
27368;DHT22;14839;48.106;11.618;2024-01-15T08:14:08;-0.30;94.60
27368;DHT22;14839;48.106;11.618;2024-01-15T08:16:34;-0.30;94.60
27368;DHT22;14839;48.106;11.618;2024-01-15T08:19:00;-0.20;94.60
27368;DHT22;14839;48.106;11.618;2024-01-15T08:21:25;-0.20;94.60
27368;DHT22;14839;48.106;11.618;2024-01-15T08:23:52;-0.20;94.60
27368;DHT22;14839;48.106;11.618;2024-01-15T08:26:18;-0.30;94.60
27368;DHT22;14839;48.106;11.618;2024-01-15T08:28:43;-0.20;94.60
27368;DHT22;14839;48.106;11.618;2024-01-15T08:31:09;-0.10;94.60
27368;DHT22;14839;48.106;11.618;2024-01-15T08:33:35;-0.20;94.60
27368;DHT22;14839;48.106;11.618;2024-01-15T08:36:01;-0.20;94.60
27368;DHT22;14839;48.106;11.618;2024-01-15T08:38:26;-0.10;94.60
27368;DHT22;14839;48.106;11.618;2024-01-15T08:40:52;-0.10;94.60
27368;DHT22;14839;48.106;11.618;2024-01-15T08:43:18;-0.10;94.60
27368;DHT22;14839;48.106;11.618;2024-01-15T08:45:44;-0.10;94.60
27368;DHT22;14839;48.106;11.618;2024-01-15T08:48:13;-0.10;94.60
27368;DHT22;14839;48.106;11.618;2024-01-15T08:50:39;-0.10;94.60
27368;DHT22;14839;48.106;11.618;2024-01-15T08:53:04;0.00;94.60
27368;DHT22;14839;48.106;11.618;2024-01-15T08:55:30;0.00;94.60
27368;DHT22;14839;48.106;11.618;2024-01-15T08:57:56;-0.10;94.60
27368;DHT22;14839;48.106;11.618;2024-01-15T09:00:21;-0.10;94.60
27368;DHT22;14839;48.106;11.618;2024-01-15T09:02:50;-0.10;94.60
27368;DHT22;14839;48.106;11.618;2024-01-15T09:05:16;-0.10;94.60
27368;DHT22;14839;48.106;11.618;2024-01-15T09:07:41;0.00;94.60
27368;DHT22;14839;48.106;11.618;2024-01-15T09:10:07;0.00;94.60
27368;DHT22;14839;48.106;11.618;2024-01-15T09:12:33;0.10;94.60
27368;DHT22;14839;48.106;11.618;2024-01-15T09:14:58;0.20;94.60
27368;DHT22;14839;48.106;11.618;2024-01-15T09:17:24;0.20;94.60
27368;DHT22;14839;48.106;11.618;2024-01-15T09:19:50;0.10;94.60
27368;DHT22;14839;48.106;11.618;2024-01-15T09:22:15;0.20;94.60
27368;DHT22;14839;48.106;11.618;2024-01-15T09:24:44;0.30;94.60
27368;DHT22;14839;48.106;11.618;2024-01-15T09:27:10;0.40;94.60
27368;DHT22;14839;48.106;11.618;2024-01-15T09:29:36;0.40;94.60
27368;DHT22;14839;48.106;11.618;2024-01-15T09:32:05;0.40;94.40
27368;DHT22;14839;48.106;11.618;2024-01-15T09:34:31;0.50;94.30
27368;DHT22;14839;48.106;11.618;2024-01-15T09:36:56;0.50;94.10
27368;DHT22;14839;48.106;11.618;2024-01-15T09:39:22;0.60;94.00
27368;DHT22;14839;48.106;11.618;2024-01-15T09:41:49;0.60;93.30
27368;DHT22;14839;48.106;11.618;2024-01-15T09:44:15;0.60;93.50
27368;DHT22;14839;48.106;11.618;2024-01-15T09:46:41;0.70;93.70
27368;DHT22;14839;48.106;11.618;2024-01-15T09:49:08;0.70;93.40
27368;DHT22;14839;48.106;11.618;2024-01-15T09:51:35;0.80;93.20
27368;DHT22;14839;48.106;11.618;2024-01-15T09:54:02;0.90;93.20
27368;DHT22;14839;48.106;11.618;2024-01-15T09:56:30;1.00;92.50
27368;DHT22;14839;48.106;11.618;2024-01-15T09:58:56;1.20;92.40
27368;DHT22;14839;48.106;11.618;2024-01-15T10:01:23;1.20;91.90
27368;DHT22;14839;48.106;11.618;2024-01-15T10:03:49;1.30;91.60
27368;DHT22;14839;48.106;11.618;2024-01-15T10:06:16;1.30;91.00
27368;DHT22;14839;48.106;11.618;2024-01-15T10:08:46;1.30;91.50
27368;DHT22;14839;48.106;11.618;2024-01-15T10:11:13;1.40;91.00
27368;DHT22;14839;48.106;11.618;2024-01-15T10:13:39;1.40;90.50
27368;DHT22;14839;48.106;11.618;2024-01-15T10:16:05;1.40;90.30
27368;DHT22;14839;48.106;11.618;2024-01-15T10:18:31;1.40;89.80
27368;DHT22;14839;48.106;11.618;2024-01-15T10:20:57;1.30;89.30
27368;DHT22;14839;48.106;11.618;2024-01-15T10:23:25;1.30;90.40
27368;DHT22;14839;48.106;11.618;2024-01-15T10:25:51;1.50;90.40
27368;DHT22;14839;48.106;11.618;2024-01-15T10:28:19;1.50;89.60
27368;DHT22;14839;48.106;11.618;2024-01-15T10:30:45;1.40;89.60
27368;DHT22;14839;48.106;11.618;2024-01-15T10:33:10;1.40;90.10
27368;DHT22;14839;48.106;11.618;2024-01-15T10:35:38;1.60;89.90
27368;DHT22;14839;48.106;11.618;2024-01-15T10:38:05;1.60;89.00
27368;DHT22;14839;48.106;11.618;2024-01-15T10:40:31;1.60;88.30
27368;DHT22;14839;48.106;11.618;2024-01-15T10:42:57;1.60;88.60
27368;DHT22;14839;48.106;11.618;2024-01-15T10:45:23;1.60;88.60
27368;DHT22;14839;48.106;11.618;2024-01-15T10:47:49;1.50;89.30
27368;DHT22;14839;48.106;11.618;2024-01-15T10:50:15;1.40;89.60
27368;DHT22;14839;48.106;11.618;2024-01-15T10:52:42;1.60;89.30
27368;DHT22;14839;48.106;11.618;2024-01-15T10:55:11;1.60;89.00
27368;DHT22;14839;48.106;11.618;2024-01-15T10:57:39;1.60;89.00
27368;DHT22;14839;48.106;11.618;2024-01-15T11:00:05;1.80;88.40
27368;DHT22;14839;48.106;11.618;2024-01-15T11:02:36;1.90;88.30
27368;DHT22;14839;48.106;11.618;2024-01-15T11:05:03;1.90;88.00
27368;DHT22;14839;48.106;11.618;2024-01-15T11:07:31;1.80;88.10
27368;DHT22;14839;48.106;11.618;2024-01-15T11:09:57;1.90;88.90
27368;DHT22;14839;48.106;11.618;2024-01-15T11:12:25;1.80;89.60
27368;DHT22;14839;48.106;11.618;2024-01-15T11:14:51;2.10;89.20
27368;DHT22;14839;48.106;11.618;2024-01-15T11:17:19;2.20;89.00
27368;DHT22;14839;48.106;11.618;2024-01-15T11:19:48;2.10;87.80
27368;DHT22;14839;48.106;11.618;2024-01-15T11:24:56;2.10;88.40
27368;DHT22;14839;48.106;11.618;2024-01-15T11:27:41;2.30;88.00
27368;DHT22;14839;48.106;11.618;2024-01-15T11:30:11;2.40;87.40
27368;DHT22;14839;48.106;11.618;2024-01-15T11:32:38;2.40;88.00
27368;DHT22;14839;48.106;11.618;2024-01-15T11:35:07;2.50;87.80
27368;DHT22;14839;48.106;11.618;2024-01-15T11:42:58;2.70;86.30
27368;DHT22;14839;48.106;11.618;2024-01-15T11:45:24;2.40;86.60
27368;DHT22;14839;48.106;11.618;2024-01-15T11:50:30;2.40;87.70
27368;DHT22;14839;48.106;11.618;2024-01-15T11:53:03;2.30;87.50
27368;DHT22;14839;48.106;11.618;2024-01-15T11:55:38;2.10;87.80
27368;DHT22;14839;48.106;11.618;2024-01-15T11:58:08;1.80;88.90
27368;DHT22;14839;48.106;11.618;2024-01-15T12:00:42;1.60;89.80
27368;DHT22;14839;48.106;11.618;2024-01-15T12:03:08;1.40;90.50
27368;DHT22;14839;48.106;11.618;2024-01-15T12:05:37;1.30;91.00
27368;DHT22;14839;48.106;11.618;2024-01-15T12:08:02;1.30;91.30
27368;DHT22;14839;48.106;11.618;2024-01-15T12:10:28;1.30;91.30
27368;DHT22;14839;48.106;11.618;2024-01-15T12:15:26;1.20;92.20
27368;DHT22;14839;48.106;11.618;2024-01-15T12:17:53;1.20;91.90
27368;DHT22;14839;48.106;11.618;2024-01-15T12:20:20;1.20;92.20
27368;DHT22;14839;48.106;11.618;2024-01-15T12:22:46;1.30;91.90
27368;DHT22;14839;48.106;11.618;2024-01-15T12:25:11;1.20;92.30
27368;DHT22;14839;48.106;11.618;2024-01-15T12:27:37;1.20;92.60
27368;DHT22;14839;48.106;11.618;2024-01-15T12:30:03;1.10;92.60
27368;DHT22;14839;48.106;11.618;2024-01-15T12:32:29;1.20;92.70
27368;DHT22;14839;48.106;11.618;2024-01-15T12:34:55;1.10;92.70
27368;DHT22;14839;48.106;11.618;2024-01-15T12:37:21;1.10;93.70
27368;DHT22;14839;48.106;11.618;2024-01-15T12:39:47;1.10;93.40
27368;DHT22;14839;48.106;11.618;2024-01-15T12:42:16;1.10;93.60
27368;DHT22;14839;48.106;11.618;2024-01-15T12:44:42;1.00;93.90
27368;DHT22;14839;48.106;11.618;2024-01-15T12:47:08;0.90;94.20
27368;DHT22;14839;48.106;11.618;2024-01-15T12:49:33;0.90;94.30
27368;DHT22;14839;48.106;11.618;2024-01-15T12:52:01;0.90;94.40
27368;DHT22;14839;48.106;11.618;2024-01-15T12:54:29;1.00;94.30
27368;DHT22;14839;48.106;11.618;2024-01-15T12:56:55;1.10;94.10
27368;DHT22;14839;48.106;11.618;2024-01-15T12:59:20;1.00;94.10
27368;DHT22;14839;48.106;11.618;2024-01-15T13:01:46;1.10;94.40
27368;DHT22;14839;48.106;11.618;2024-01-15T13:04:20;1.30;94.60
27368;DHT22;14839;48.106;11.618;2024-01-15T13:06:46;1.60;94.00
27368;DHT22;14839;48.106;11.618;2024-01-15T13:09:12;1.90;93.40
27368;DHT22;14839;48.106;11.618;2024-01-15T13:11:37;2.20;92.60
27368;DHT22;14839;48.106;11.618;2024-01-15T13:14:03;2.50;92.30
27368;DHT22;14839;48.106;11.618;2024-01-15T13:16:29;2.90;91.40
27368;DHT22;14839;48.106;11.618;2024-01-15T13:18:55;3.10;90.70
27368;DHT22;14839;48.106;11.618;2024-01-15T13:21:21;3.40;89.80
27368;DHT22;14839;48.106;11.618;2024-01-15T13:23:47;3.60;89.00
27368;DHT22;14839;48.106;11.618;2024-01-15T13:26:13;3.60;88.40
27368;DHT22;14839;48.106;11.618;2024-01-15T13:28:39;3.30;88.90
27368;DHT22;14839;48.106;11.618;2024-01-15T13:31:05;3.30;89.00
27368;DHT22;14839;48.106;11.618;2024-01-15T13:33:30;3.40;89.50
27368;DHT22;14839;48.106;11.618;2024-01-15T13:35:56;3.20;89.50
27368;DHT22;14839;48.106;11.618;2024-01-15T13:38:21;3.00;89.60
27368;DHT22;14839;48.106;11.618;2024-01-15T13:40:47;2.90;90.50
27368;DHT22;14839;48.106;11.618;2024-01-15T13:43:13;2.80;90.80
27368;DHT22;14839;48.106;11.618;2024-01-15T13:45:41;2.80;90.90
27368;DHT22;14839;48.106;11.618;2024-01-15T13:48:06;2.70;90.80
27368;DHT22;14839;48.106;11.618;2024-01-15T13:50:34;2.60;91.10
27368;DHT22;14839;48.106;11.618;2024-01-15T13:53:02;2.50;91.40
27368;DHT22;14839;48.106;11.618;2024-01-15T13:55:29;2.50;91.40
27368;DHT22;14839;48.106;11.618;2024-01-15T13:57:54;2.40;91.60
27368;DHT22;14839;48.106;11.618;2024-01-15T14:00:20;2.30;91.80
27368;DHT22;14839;48.106;11.618;2024-01-15T14:02:46;2.20;92.30
27368;DHT22;14839;48.106;11.618;2024-01-15T14:05:12;2.40;92.30
27368;DHT22;14839;48.106;11.618;2024-01-15T14:07:38;2.40;91.90
27368;DHT22;14839;48.106;11.618;2024-01-15T14:10:05;2.40;92.00
27368;DHT22;14839;48.106;11.618;2024-01-15T14:12:31;2.30;91.90
27368;DHT22;14839;48.106;11.618;2024-01-15T14:14:57;2.30;92.20
27368;DHT22;14839;48.106;11.618;2024-01-15T14:17:22;2.10;92.40
27368;DHT22;14839;48.106;11.618;2024-01-15T14:19:48;2.00;93.10
27368;DHT22;14839;48.106;11.618;2024-01-15T14:22:13;1.90;93.20
27368;DHT22;14839;48.106;11.618;2024-01-15T14:24:39;1.90;93.40
27368;DHT22;14839;48.106;11.618;2024-01-15T14:27:04;1.90;93.20
27368;DHT22;14839;48.106;11.618;2024-01-15T14:29:32;1.80;93.30
27368;DHT22;14839;48.106;11.618;2024-01-15T14:31:58;1.70;93.80
27368;DHT22;14839;48.106;11.618;2024-01-15T14:34:25;1.70;94.10
27368;DHT22;14839;48.106;11.618;2024-01-15T14:36:51;1.60;94.60
27368;DHT22;14839;48.106;11.618;2024-01-15T14:39:19;1.60;94.60
27368;DHT22;14839;48.106;11.618;2024-01-15T14:41:45;1.60;94.60
27368;DHT22;14839;48.106;11.618;2024-01-15T14:44:11;1.50;94.60
27368;DHT22;14839;48.106;11.618;2024-01-15T14:46:37;1.50;94.60
27368;DHT22;14839;48.106;11.618;2024-01-15T14:49:03;1.40;94.60
27368;DHT22;14839;48.106;11.618;2024-01-15T14:51:28;1.30;94.60
27368;DHT22;14839;48.106;11.618;2024-01-15T14:53:54;1.30;94.60
27368;DHT22;14839;48.106;11.618;2024-01-15T14:56:20;1.20;94.60
27368;DHT22;14839;48.106;11.618;2024-01-15T14:58:46;1.20;94.60
27368;DHT22;14839;48.106;11.618;2024-01-15T15:01:12;1.20;94.60
27368;DHT22;14839;48.106;11.618;2024-01-15T15:03:38;1.10;94.60
27368;DHT22;14839;48.106;11.618;2024-01-15T15:06:04;1.20;94.60
27368;DHT22;14839;48.106;11.618;2024-01-15T15:08:29;1.10;94.60
27368;DHT22;14839;48.106;11.618;2024-01-15T15:10:55;1.10;94.60
27368;DHT22;14839;48.106;11.618;2024-01-15T15:13:22;1.00;94.60
27368;DHT22;14839;48.106;11.618;2024-01-15T15:15:48;1.00;94.60
27368;DHT22;14839;48.106;11.618;2024-01-15T15:18:14;1.10;94.60
27368;DHT22;14839;48.106;11.618;2024-01-15T15:20:39;1.10;94.60
27368;DHT22;14839;48.106;11.618;2024-01-15T15:23:05;1.00;94.60
27368;DHT22;14839;48.106;11.618;2024-01-15T15:25:34;1.00;94.60
27368;DHT22;14839;48.106;11.618;2024-01-15T15:28:01;0.90;94.60
27368;DHT22;14839;48.106;11.618;2024-01-15T15:30:26;0.90;94.60
27368;DHT22;14839;48.106;11.618;2024-01-15T15:32:52;0.90;94.60
27368;DHT22;14839;48.106;11.618;2024-01-15T15:35:17;0.90;94.60
27368;DHT22;14839;48.106;11.618;2024-01-15T15:37:43;0.90;94.60
27368;DHT22;14839;48.106;11.618;2024-01-15T15:40:09;0.90;94.60
27368;DHT22;14839;48.106;11.618;2024-01-15T15:42:36;0.90;94.60
27368;DHT22;14839;48.106;11.618;2024-01-15T15:45:05;0.80;94.60
27368;DHT22;14839;48.106;11.618;2024-01-15T15:47:31;0.80;94.60
27368;DHT22;14839;48.106;11.618;2024-01-15T15:49:58;0.70;94.60
27368;DHT22;14839;48.106;11.618;2024-01-15T15:52:23;0.70;94.60
27368;DHT22;14839;48.106;11.618;2024-01-15T15:54:49;0.80;94.60
27368;DHT22;14839;48.106;11.618;2024-01-15T15:57:14;0.80;94.60
27368;DHT22;14839;48.106;11.618;2024-01-15T15:59:40;0.70;94.60
27368;DHT22;14839;48.106;11.618;2024-01-15T16:02:06;0.70;94.60
27368;DHT22;14839;48.106;11.618;2024-01-15T16:04:32;0.70;94.60
27368;DHT22;14839;48.106;11.618;2024-01-15T16:06:57;0.70;94.60
27368;DHT22;14839;48.106;11.618;2024-01-15T16:09:26;0.70;94.60
27368;DHT22;14839;48.106;11.618;2024-01-15T16:11:51;0.70;94.60
27368;DHT22;14839;48.106;11.618;2024-01-15T16:14:17;0.70;94.60
27368;DHT22;14839;48.106;11.618;2024-01-15T16:16:44;0.80;94.60
27368;DHT22;14839;48.106;11.618;2024-01-15T16:19:10;0.80;94.60
27368;DHT22;14839;48.106;11.618;2024-01-15T16:21:36;0.70;94.60
27368;DHT22;14839;48.106;11.618;2024-01-15T16:24:02;0.80;94.60
27368;DHT22;14839;48.106;11.618;2024-01-15T16:26:28;0.70;94.60
27368;DHT22;14839;48.106;11.618;2024-01-15T16:28:53;0.80;94.60
27368;DHT22;14839;48.106;11.618;2024-01-15T16:31:19;0.80;94.60
27368;DHT22;14839;48.106;11.618;2024-01-15T16:33:44;0.80;94.60
27368;DHT22;14839;48.106;11.618;2024-01-15T16:36:10;0.70;94.60
27368;DHT22;14839;48.106;11.618;2024-01-15T16:38:35;0.70;94.60
27368;DHT22;14839;48.106;11.618;2024-01-15T16:41:01;0.70;94.60
27368;DHT22;14839;48.106;11.618;2024-01-15T16:43:27;0.70;94.60
27368;DHT22;14839;48.106;11.618;2024-01-15T16:45:53;0.60;94.60
27368;DHT22;14839;48.106;11.618;2024-01-15T16:48:19;0.60;94.60
27368;DHT22;14839;48.106;11.618;2024-01-15T16:50:45;0.50;94.60
27368;DHT22;14839;48.106;11.618;2024-01-15T16:53:11;0.50;94.60
27368;DHT22;14839;48.106;11.618;2024-01-15T16:55:36;0.50;94.60
27368;DHT22;14839;48.106;11.618;2024-01-15T16:58:02;0.40;94.60
27368;DHT22;14839;48.106;11.618;2024-01-15T17:00:27;0.40;94.60
27368;DHT22;14839;48.106;11.618;2024-01-15T17:02:53;0.50;94.60
27368;DHT22;14839;48.106;11.618;2024-01-15T17:05:22;0.40;94.60
27368;DHT22;14839;48.106;11.618;2024-01-15T17:07:48;0.40;94.60
27368;DHT22;14839;48.106;11.618;2024-01-15T17:10:13;0.40;94.60
27368;DHT22;14839;48.106;11.618;2024-01-15T17:12:39;0.30;94.60
27368;DHT22;14839;48.106;11.618;2024-01-15T17:15:05;0.30;94.60
27368;DHT22;14839;48.106;11.618;2024-01-15T17:17:31;0.30;94.60
27368;DHT22;14839;48.106;11.618;2024-01-15T17:19:57;0.30;94.60
27368;DHT22;14839;48.106;11.618;2024-01-15T17:22:23;0.40;94.60
27368;DHT22;14839;48.106;11.618;2024-01-15T17:24:48;0.30;94.60
27368;DHT22;14839;48.106;11.618;2024-01-15T17:27:14;0.40;94.60
27368;DHT22;14839;48.106;11.618;2024-01-15T17:29:39;0.40;94.60
27368;DHT22;14839;48.106;11.618;2024-01-15T17:32:06;0.40;94.60
27368;DHT22;14839;48.106;11.618;2024-01-15T17:34:32;0.40;94.60
27368;DHT22;14839;48.106;11.618;2024-01-15T17:36:57;0.40;94.60
27368;DHT22;14839;48.106;11.618;2024-01-15T17:39:23;0.40;94.60
27368;DHT22;14839;48.106;11.618;2024-01-15T17:41:49;0.40;94.60
27368;DHT22;14839;48.106;11.618;2024-01-15T17:44:15;0.40;94.60
27368;DHT22;14839;48.106;11.618;2024-01-15T17:46:40;0.40;94.60
27368;DHT22;14839;48.106;11.618;2024-01-15T17:49:07;0.50;94.60
27368;DHT22;14839;48.106;11.618;2024-01-15T17:51:33;0.30;94.60
27368;DHT22;14839;48.106;11.618;2024-01-15T17:53:59;-0.20;94.60
27368;DHT22;14839;48.106;11.618;2024-01-15T17:56:25;-0.40;94.60
27368;DHT22;14839;48.106;11.618;2024-01-15T17:58:51;-0.70;94.60
27368;DHT22;14839;48.106;11.618;2024-01-15T18:01:17;-0.90;94.60
27368;DHT22;14839;48.106;11.618;2024-01-15T18:03:45;-1.00;94.60
27368;DHT22;14839;48.106;11.618;2024-01-15T18:06:10;-1.10;94.60
27368;DHT22;14839;48.106;11.618;2024-01-15T18:08:36;-1.10;94.60
27368;DHT22;14839;48.106;11.618;2024-01-15T18:11:03;-1.10;94.60
27368;DHT22;14839;48.106;11.618;2024-01-15T18:13:30;-1.10;94.60
27368;DHT22;14839;48.106;11.618;2024-01-15T18:15:56;-1.10;94.60
27368;DHT22;14839;48.106;11.618;2024-01-15T18:18:23;-1.10;94.60
27368;DHT22;14839;48.106;11.618;2024-01-15T18:20:48;-1.10;94.60
27368;DHT22;14839;48.106;11.618;2024-01-15T18:23:14;-1.10;94.60
27368;DHT22;14839;48.106;11.618;2024-01-15T18:25:40;-1.10;94.60
27368;DHT22;14839;48.106;11.618;2024-01-15T18:28:07;-1.20;94.60
27368;DHT22;14839;48.106;11.618;2024-01-15T18:30:33;-1.10;94.60
27368;DHT22;14839;48.106;11.618;2024-01-15T18:32:59;-1.10;94.60
27368;DHT22;14839;48.106;11.618;2024-01-15T18:35:25;-1.10;94.60
27368;DHT22;14839;48.106;11.618;2024-01-15T18:37:51;-1.10;94.60
27368;DHT22;14839;48.106;11.618;2024-01-15T18:40:17;-1.10;94.60
27368;DHT22;14839;48.106;11.618;2024-01-15T18:42:43;-1.00;94.60
27368;DHT22;14839;48.106;11.618;2024-01-15T18:45:09;-1.00;94.60
27368;DHT22;14839;48.106;11.618;2024-01-15T18:47:34;-1.00;94.60
27368;DHT22;14839;48.106;11.618;2024-01-15T18:50:00;-1.00;94.60
27368;DHT22;14839;48.106;11.618;2024-01-15T18:52:26;-1.00;94.60
27368;DHT22;14839;48.106;11.618;2024-01-15T18:54:55;-1.10;94.60
27368;DHT22;14839;48.106;11.618;2024-01-15T18:57:21;-1.10;94.60
27368;DHT22;14839;48.106;11.618;2024-01-15T18:59:47;-1.20;94.60
27368;DHT22;14839;48.106;11.618;2024-01-15T19:02:13;-1.30;94.60
27368;DHT22;14839;48.106;11.618;2024-01-15T19:04:38;-1.30;94.60
27368;DHT22;14839;48.106;11.618;2024-01-15T19:07:04;-1.40;94.60
27368;DHT22;14839;48.106;11.618;2024-01-15T19:09:32;-1.40;94.60
27368;DHT22;14839;48.106;11.618;2024-01-15T19:11:57;-1.50;94.60
27368;DHT22;14839;48.106;11.618;2024-01-15T19:14:23;-1.50;94.60
27368;DHT22;14839;48.106;11.618;2024-01-15T19:16:49;-1.60;94.60
27368;DHT22;14839;48.106;11.618;2024-01-15T19:19:14;-1.60;94.60
27368;DHT22;14839;48.106;11.618;2024-01-15T19:21:40;-1.70;94.60
27368;DHT22;14839;48.106;11.618;2024-01-15T19:24:05;-1.80;94.60
27368;DHT22;14839;48.106;11.618;2024-01-15T19:26:31;-1.80;94.60
27368;DHT22;14839;48.106;11.618;2024-01-15T19:28:56;-1.80;94.60
27368;DHT22;14839;48.106;11.618;2024-01-15T19:31:22;-1.80;94.60
27368;DHT22;14839;48.106;11.618;2024-01-15T19:33:48;-1.80;94.60
27368;DHT22;14839;48.106;11.618;2024-01-15T19:38:46;-1.90;94.60
27368;DHT22;14839;48.106;11.618;2024-01-15T19:41:12;-1.90;94.60
27368;DHT22;14839;48.106;11.618;2024-01-15T19:43:37;-1.90;94.60
27368;DHT22;14839;48.106;11.618;2024-01-15T19:46:03;-1.90;94.60
27368;DHT22;14839;48.106;11.618;2024-01-15T19:48:28;-1.90;94.60
27368;DHT22;14839;48.106;11.618;2024-01-15T19:50:54;-2.00;94.60
27368;DHT22;14839;48.106;11.618;2024-01-15T19:53:21;-2.10;94.60
27368;DHT22;14839;48.106;11.618;2024-01-15T19:55:46;-2.20;94.60
27368;DHT22;14839;48.106;11.618;2024-01-15T19:58:12;-2.20;94.60
27368;DHT22;14839;48.106;11.618;2024-01-15T20:00:39;-2.20;94.60
27368;DHT22;14839;48.106;11.618;2024-01-15T20:03:05;-2.30;94.60
27368;DHT22;14839;48.106;11.618;2024-01-15T20:05:30;-2.30;94.60
27368;DHT22;14839;48.106;11.618;2024-01-15T20:07:57;-2.20;94.60
27368;DHT22;14839;48.106;11.618;2024-01-15T20:10:23;-2.20;94.60
27368;DHT22;14839;48.106;11.618;2024-01-15T20:12:50;-2.20;94.60
27368;DHT22;14839;48.106;11.618;2024-01-15T20:15:17;-2.20;94.60
27368;DHT22;14839;48.106;11.618;2024-01-15T20:17:43;-2.20;94.60
27368;DHT22;14839;48.106;11.618;2024-01-15T20:20:09;-2.20;94.60
27368;DHT22;14839;48.106;11.618;2024-01-15T20:22:36;-2.30;94.60
27368;DHT22;14839;48.106;11.618;2024-01-15T20:25:02;-2.30;94.60
27368;DHT22;14839;48.106;11.618;2024-01-15T20:27:28;-2.30;94.60
27368;DHT22;14839;48.106;11.618;2024-01-15T20:29:54;-2.30;94.60
27368;DHT22;14839;48.106;11.618;2024-01-15T20:32:19;-2.40;94.60
27368;DHT22;14839;48.106;11.618;2024-01-15T20:34:45;-2.40;94.60